sensor_id;sensor_type;location;lat;lon;timestamp;P1;durP1;ratioP1;P2;durP2;ratioP2
8596;SDS011;4336;49.310;8.646;2023-06-10T00:00:42;10.77;;;9.67;;
8596;SDS011;4336;49.310;8.646;2023-06-10T00:03:09;12.27;;;11.03;;
8596;SDS011;4336;49.310;8.646;2023-06-10T00:05:35;12.70;;;11.50;;
8596;SDS011;4336;49.310;8.646;2023-06-10T00:08:04;14.67;;;11.77;;
8596;SDS011;4336;49.310;8.646;2023-06-10T00:10:37;12.97;;;11.77;;
8596;SDS011;4336;49.310;8.646;2023-06-10T00:13:03;14.67;;;12.70;;
8596;SDS011;4336;49.310;8.646;2023-06-10T00:15:30;12.97;;;11.77;;
8596;SDS011;4336;49.310;8.646;2023-06-10T00:17:56;13.43;;;12.03;;
8596;SDS011;4336;49.310;8.646;2023-06-10T00:20:22;17.30;;;11.40;;
8596;SDS011;4336;49.310;8.646;2023-06-10T00:22:49;11.27;;;10.20;;
8596;SDS011;4336;49.310;8.646;2023-06-10T00:25:16;14.30;;;12.67;;
8596;SDS011;4336;49.310;8.646;2023-06-10T00:27:43;12.90;;;11.53;;
8596;SDS011;4336;49.310;8.646;2023-06-10T00:30:09;12.73;;;11.43;;
8596;SDS011;4336;49.310;8.646;2023-06-10T00:32:35;13.53;;;12.20;;
8596;SDS011;4336;49.310;8.646;2023-06-10T00:35:02;13.83;;;12.47;;
8596;SDS011;4336;49.310;8.646;2023-06-10T00:37:30;13.10;;;11.67;;
8596;SDS011;4336;49.310;8.646;2023-06-10T00:39:57;12.83;;;11.73;;
8596;SDS011;4336;49.310;8.646;2023-06-10T00:42:24;12.50;;;11.40;;
8596;SDS011;4336;49.310;8.646;2023-06-10T00:44:50;12.50;;;11.30;;
8596;SDS011;4336;49.310;8.646;2023-06-10T00:47:17;10.67;;;9.63;;
8596;SDS011;4336;49.310;8.646;2023-06-10T00:49:43;13.07;;;11.67;;
8596;SDS011;4336;49.310;8.646;2023-06-10T00:52:09;13.90;;;9.27;;
8596;SDS011;4336;49.310;8.646;2023-06-10T00:54:36;12.70;;;11.50;;
8596;SDS011;4336;49.310;8.646;2023-06-10T00:57:03;12.30;;;11.13;;
8596;SDS011;4336;49.310;8.646;2023-06-10T00:59:30;13.70;;;11.83;;
8596;SDS011;4336;49.310;8.646;2023-06-10T01:01:57;13.47;;;12.17;;
8596;SDS011;4336;49.310;8.646;2023-06-10T01:04:23;14.23;;;11.87;;
8596;SDS011;4336;49.310;8.646;2023-06-10T01:14:36;13.37;;;12.17;;
8596;SDS011;4336;49.310;8.646;2023-06-10T01:17:04;13.33;;;12.10;;
8596;SDS011;4336;49.310;8.646;2023-06-10T01:19:31;13.33;;;10.17;;
8596;SDS011;4336;49.310;8.646;2023-06-10T01:21:59;12.47;;;11.37;;
8596;SDS011;4336;49.310;8.646;2023-06-10T01:24:29;13.47;;;12.17;;
8596;SDS011;4336;49.310;8.646;2023-06-10T01:27:00;12.93;;;11.70;;
8596;SDS011;4336;49.310;8.646;2023-06-10T01:32:37;13.63;;;12.23;;
8596;SDS011;4336;49.310;8.646;2023-06-10T01:35:04;12.50;;;10.97;;
8596;SDS011;4336;49.310;8.646;2023-06-10T01:37:31;13.80;;;12.47;;
8596;SDS011;4336;49.310;8.646;2023-06-10T01:39:58;14.13;;;12.83;;
8596;SDS011;4336;49.310;8.646;2023-06-10T01:42:24;13.63;;;12.27;;
8596;SDS011;4336;49.310;8.646;2023-06-10T01:44:51;14.07;;;12.67;;
8596;SDS011;4336;49.310;8.646;2023-06-10T01:47:17;12.50;;;11.30;;
8596;SDS011;4336;49.310;8.646;2023-06-10T01:49:44;13.67;;;12.27;;
8596;SDS011;4336;49.310;8.646;2023-06-10T01:52:10;13.87;;;12.60;;
8596;SDS011;4336;49.310;8.646;2023-06-10T01:54:36;14.90;;;13.13;;
8596;SDS011;4336;49.310;8.646;2023-06-10T01:57:02;14.30;;;12.80;;
8596;SDS011;4336;49.310;8.646;2023-06-10T01:59:29;13.07;;;11.80;;
8596;SDS011;4336;49.310;8.646;2023-06-10T02:01:55;13.73;;;12.43;;
8596;SDS011;4336;49.310;8.646;2023-06-10T02:04:21;14.90;;;12.40;;
8596;SDS011;4336;49.310;8.646;2023-06-10T02:06:47;13.43;;;12.03;;
8596;SDS011;4336;49.310;8.646;2023-06-10T02:09:14;12.80;;;11.43;;
8596;SDS011;4336;49.310;8.646;2023-06-10T02:11:40;15.20;;;12.23;;
8596;SDS011;4336;49.310;8.646;2023-06-10T02:14:06;14.67;;;13.13;;
8596;SDS011;4336;49.310;8.646;2023-06-10T02:16:32;15.77;;;13.30;;
8596;SDS011;4336;49.310;8.646;2023-06-10T02:18:58;13.63;;;11.30;;
8596;SDS011;4336;49.310;8.646;2023-06-10T02:21:26;12.83;;;11.23;;
8596;SDS011;4336;49.310;8.646;2023-06-10T02:23:53;13.70;;;12.40;;
8596;SDS011;4336;49.310;8.646;2023-06-10T02:26:19;13.67;;;12.37;;
8596;SDS011;4336;49.310;8.646;2023-06-10T02:28:46;13.50;;;12.20;;
8596;SDS011;4336;49.310;8.646;2023-06-10T02:31:13;13.47;;;12.07;;
8596;SDS011;4336;49.310;8.646;2023-06-10T02:33:39;12.93;;;11.63;;
8596;SDS011;4336;49.310;8.646;2023-06-10T02:36:06;13.20;;;12.10;;
8596;SDS011;4336;49.310;8.646;2023-06-10T02:38:32;13.67;;;12.47;;
8596;SDS011;4336;49.310;8.646;2023-06-10T02:40:59;13.07;;;11.83;;
8596;SDS011;4336;49.310;8.646;2023-06-10T02:43:25;12.80;;;11.70;;
8596;SDS011;4336;49.310;8.646;2023-06-10T02:45:51;13.47;;;12.17;;
8596;SDS011;4336;49.310;8.646;2023-06-10T02:48:17;14.83;;;13.00;;
8596;SDS011;4336;49.310;8.646;2023-06-10T02:50:43;13.23;;;12.13;;
8596;SDS011;4336;49.310;8.646;2023-06-10T02:53:16;13.57;;;11.93;;
8596;SDS011;4336;49.310;8.646;2023-06-10T02:55:50;13.93;;;12.10;;
8596;SDS011;4336;49.310;8.646;2023-06-10T02:58:17;11.00;;;9.90;;
8596;SDS011;4336;49.310;8.646;2023-06-10T03:00:43;11.00;;;10.00;;
8596;SDS011;4336;49.310;8.646;2023-06-10T03:03:11;13.57;;;12.07;;
8596;SDS011;4336;49.310;8.646;2023-06-10T03:05:46;13.07;;;11.80;;
8596;SDS011;4336;49.310;8.646;2023-06-10T03:08:13;13.10;;;11.90;;
8596;SDS011;4336;49.310;8.646;2023-06-10T03:10:42;13.43;;;12.07;;
8596;SDS011;4336;49.310;8.646;2023-06-10T03:13:11;12.77;;;11.67;;
8596;SDS011;4336;49.310;8.646;2023-06-10T03:15:37;14.07;;;12.50;;
8596;SDS011;4336;49.310;8.646;2023-06-10T03:18:08;13.30;;;12.10;;
8596;SDS011;4336;49.310;8.646;2023-06-10T03:20:35;15.50;;;13.83;;
8596;SDS011;4336;49.310;8.646;2023-06-10T03:23:04;13.23;;;11.90;;
8596;SDS011;4336;49.310;8.646;2023-06-10T03:25:34;14.13;;;12.73;;
8596;SDS011;4336;49.310;8.646;2023-06-10T03:28:00;14.20;;;12.67;;
8596;SDS011;4336;49.310;8.646;2023-06-10T03:30:27;22.80;;;20.43;;
8596;SDS011;4336;49.310;8.646;2023-06-10T03:32:53;14.13;;;12.77;;
8596;SDS011;4336;49.310;8.646;2023-06-10T03:35:23;13.27;;;12.00;;
8596;SDS011;4336;49.310;8.646;2023-06-10T03:37:49;11.77;;;10.67;;
8596;SDS011;4336;49.310;8.646;2023-06-10T03:40:15;12.60;;;11.40;;
8596;SDS011;4336;49.310;8.646;2023-06-10T03:42:44;14.43;;;12.90;;
8596;SDS011;4336;49.310;8.646;2023-06-10T03:45:13;12.70;;;11.50;;
8596;SDS011;4336;49.310;8.646;2023-06-10T03:47:38;13.10;;;11.63;;
8596;SDS011;4336;49.310;8.646;2023-06-10T03:50:08;18.10;;;12.73;;
8596;SDS011;4336;49.310;8.646;2023-06-10T03:52:38;12.27;;;11.07;;
8596;SDS011;4336;49.310;8.646;2023-06-10T03:55:05;14.37;;;12.97;;
8596;SDS011;4336;49.310;8.646;2023-06-10T03:57:31;14.37;;;12.97;;
8596;SDS011;4336;49.310;8.646;2023-06-10T03:59:58;12.77;;;11.20;;
8596;SDS011;4336;49.310;8.646;2023-06-10T04:02:24;14.57;;;13.13;;
8596;SDS011;4336;49.310;8.646;2023-06-10T04:04:52;16.40;;;12.60;;
8596;SDS011;4336;49.310;8.646;2023-06-10T04:07:18;12.70;;;11.20;;
8596;SDS011;4336;49.310;8.646;2023-06-10T04:09:45;13.87;;;12.50;;
8596;SDS011;4336;49.310;8.646;2023-06-10T04:12:11;13.03;;;11.73;;
8596;SDS011;4336;49.310;8.646;2023-06-10T04:14:37;12.10;;;11.00;;
8596;SDS011;4336;49.310;8.646;2023-06-10T04:17:05;13.03;;;11.83;;
8596;SDS011;4336;49.310;8.646;2023-06-10T04:19:35;14.07;;;12.67;;
8596;SDS011;4336;49.310;8.646;2023-06-10T04:22:02;14.17;;;12.87;;
8596;SDS011;4336;49.310;8.646;2023-06-10T04:24:30;14.03;;;12.70;;
8596;SDS011;4336;49.310;8.646;2023-06-10T04:26:56;14.07;;;12.67;;
8596;SDS011;4336;49.310;8.646;2023-06-10T04:29:22;13.33;;;12.13;;
8596;SDS011;4336;49.310;8.646;2023-06-10T04:31:49;14.13;;;12.27;;
8596;SDS011;4336;49.310;8.646;2023-06-10T04:34:16;13.63;;;12.43;;
8596;SDS011;4336;49.310;8.646;2023-06-10T04:36:41;15.43;;;11.87;;
8596;SDS011;4336;49.310;8.646;2023-06-10T04:39:07;11.37;;;10.37;;
8596;SDS011;4336;49.310;8.646;2023-06-10T04:41:35;13.50;;;12.20;;
8596;SDS011;4336;49.310;8.646;2023-06-10T04:44:01;14.13;;;12.93;;
8596;SDS011;4336;49.310;8.646;2023-06-10T04:46:26;13.70;;;12.40;;
8596;SDS011;4336;49.310;8.646;2023-06-10T04:48:52;13.13;;;11.83;;
8596;SDS011;4336;49.310;8.646;2023-06-10T04:51:19;13.63;;;12.40;;
8596;SDS011;4336;49.310;8.646;2023-06-10T04:53:45;12.83;;;11.73;;
8596;SDS011;4336;49.310;8.646;2023-06-10T04:56:11;13.67;;;12.27;;
8596;SDS011;4336;49.310;8.646;2023-06-10T04:58:36;14.47;;;11.90;;
8596;SDS011;4336;49.310;8.646;2023-06-10T05:01:02;11.53;;;10.33;;
8596;SDS011;4336;49.310;8.646;2023-06-10T05:03:28;13.33;;;12.10;;
8596;SDS011;4336;49.310;8.646;2023-06-10T05:05:54;12.70;;;11.60;;
8596;SDS011;4336;49.310;8.646;2023-06-10T05:08:19;13.60;;;12.30;;
8596;SDS011;4336;49.310;8.646;2023-06-10T05:10:45;11.77;;;10.63;;
8596;SDS011;4336;49.310;8.646;2023-06-10T05:13:11;13.30;;;12.10;;
8596;SDS011;4336;49.310;8.646;2023-06-10T05:15:37;14.00;;;12.57;;
8596;SDS011;4336;49.310;8.646;2023-06-10T05:18:03;14.10;;;12.17;;
8596;SDS011;4336;49.310;8.646;2023-06-10T05:20:29;13.00;;;11.80;;
8596;SDS011;4336;49.310;8.646;2023-06-10T05:22:55;13.20;;;11.60;;
8596;SDS011;4336;49.310;8.646;2023-06-10T05:25:21;13.43;;;12.23;;
8596;SDS011;4336;49.310;8.646;2023-06-10T05:27:46;11.83;;;10.17;;
8596;SDS011;4336;49.310;8.646;2023-06-10T05:30:12;11.85;;;10.85;;
8596;SDS011;4336;49.310;8.646;2023-06-10T05:32:38;13.07;;;11.77;;
8596;SDS011;4336;49.310;8.646;2023-06-10T05:35:04;13.30;;;12.10;;
8596;SDS011;4336;49.310;8.646;2023-06-10T05:37:33;12.60;;;11.50;;
8596;SDS011;4336;49.310;8.646;2023-06-10T05:39:59;13.00;;;11.65;;
8596;SDS011;4336;49.310;8.646;2023-06-10T05:42:25;13.10;;;11.90;;
8596;SDS011;4336;49.310;8.646;2023-06-10T05:44:51;12.70;;;11.43;;
8596;SDS011;4336;49.310;8.646;2023-06-10T05:47:16;12.48;;;11.38;;
8596;SDS011;4336;49.310;8.646;2023-06-10T05:49:42;9.80;;;9.00;;
8596;SDS011;4336;49.310;8.646;2023-06-10T05:52:10;12.25;;;11.18;;
8596;SDS011;4336;49.310;8.646;2023-06-10T05:54:36;13.52;;;12.18;;
8596;SDS011;4336;49.310;8.646;2023-06-10T05:57:02;11.73;;;10.70;;
8596;SDS011;4336;49.310;8.646;2023-06-10T05:59:28;12.57;;;11.40;;
8596;SDS011;4336;49.310;8.646;2023-06-10T06:01:54;12.13;;;10.95;;
8596;SDS011;4336;49.310;8.646;2023-06-10T06:04:20;12.80;;;11.70;;
8596;SDS011;4336;49.310;8.646;2023-06-10T06:06:46;11.68;;;10.68;;
8596;SDS011;4336;49.310;8.646;2023-06-10T06:09:11;12.15;;;11.10;;
8596;SDS011;4336;49.310;8.646;2023-06-10T06:11:37;9.65;;;8.75;;
8596;SDS011;4336;49.310;8.646;2023-06-10T06:14:03;10.07;;;9.18;;
8596;SDS011;4336;49.310;8.646;2023-06-10T06:16:29;12.27;;;11.10;;
8596;SDS011;4336;49.310;8.646;2023-06-10T06:18:55;13.13;;;11.52;;
8596;SDS011;4336;49.310;8.646;2023-06-10T06:21:21;12.23;;;10.93;;
8596;SDS011;4336;49.310;8.646;2023-06-10T06:23:46;11.73;;;10.73;;
8596;SDS011;4336;49.310;8.646;2023-06-10T06:26:12;12.30;;;11.07;;
8596;SDS011;4336;49.310;8.646;2023-06-10T06:28:38;12.52;;;11.32;;
8596;SDS011;4336;49.310;8.646;2023-06-10T06:31:03;12.70;;;11.60;;
8596;SDS011;4336;49.310;8.646;2023-06-10T06:33:29;11.70;;;10.70;;
8596;SDS011;4336;49.310;8.646;2023-06-10T06:35:55;12.68;;;11.43;;
8596;SDS011;4336;49.310;8.646;2023-06-10T06:38:21;12.15;;;11.15;;
8596;SDS011;4336;49.310;8.646;2023-06-10T06:40:47;27.15;;;11.07;;
8596;SDS011;4336;49.310;8.646;2023-06-10T06:43:13;12.45;;;11.35;;
8596;SDS011;4336;49.310;8.646;2023-06-10T06:45:49;14.57;;;10.90;;
8596;SDS011;4336;49.310;8.646;2023-06-10T06:48:15;12.55;;;11.30;;
8596;SDS011;4336;49.310;8.646;2023-06-10T06:50:40;13.10;;;11.63;;
8596;SDS011;4336;49.310;8.646;2023-06-10T06:53:07;11.50;;;10.50;;
8596;SDS011;4336;49.310;8.646;2023-06-10T06:55:33;11.68;;;10.68;;
8596;SDS011;4336;49.310;8.646;2023-06-10T06:57:58;12.50;;;11.40;;
8596;SDS011;4336;49.310;8.646;2023-06-10T07:00:27;11.52;;;10.48;;
8596;SDS011;4336;49.310;8.646;2023-06-10T07:02:53;11.63;;;10.48;;
8596;SDS011;4336;49.310;8.646;2023-06-10T07:05:19;12.15;;;11.05;;
8596;SDS011;4336;49.310;8.646;2023-06-10T07:07:45;11.85;;;10.85;;
8596;SDS011;4336;49.310;8.646;2023-06-10T07:10:11;12.75;;;10.82;;
8596;SDS011;4336;49.310;8.646;2023-06-10T07:12:36;11.63;;;9.77;;
8596;SDS011;4336;49.310;8.646;2023-06-10T07:15:02;12.20;;;11.10;;
8596;SDS011;4336;49.310;8.646;2023-06-10T07:17:28;15.07;;;10.90;;
8596;SDS011;4336;49.310;8.646;2023-06-10T07:19:54;12.50;;;11.40;;
8596;SDS011;4336;49.310;8.646;2023-06-10T07:22:22;12.98;;;11.35;;
8596;SDS011;4336;49.310;8.646;2023-06-10T07:24:48;12.15;;;11.15;;
8596;SDS011;4336;49.310;8.646;2023-06-10T07:27:13;12.75;;;11.15;;
8596;SDS011;4336;49.310;8.646;2023-06-10T07:29:39;10.20;;;9.40;;
8596;SDS011;4336;49.310;8.646;2023-06-10T07:32:05;12.15;;;10.98;;
8596;SDS011;4336;49.310;8.646;2023-06-10T07:34:31;12.30;;;11.10;;
8596;SDS011;4336;49.310;8.646;2023-06-10T07:36:57;13.63;;;11.45;;
8596;SDS011;4336;49.310;8.646;2023-06-10T07:39:22;11.93;;;10.77;;
8596;SDS011;4336;49.310;8.646;2023-06-10T07:41:48;9.65;;;8.63;;
8596;SDS011;4336;49.310;8.646;2023-06-10T07:44:15;13.88;;;11.32;;
8596;SDS011;4336;49.310;8.646;2023-06-10T07:46:40;12.30;;;11.10;;
8596;SDS011;4336;49.310;8.646;2023-06-10T07:49:06;11.93;;;10.93;;
8596;SDS011;4336;49.310;8.646;2023-06-10T07:51:32;11.82;;;10.73;;
8596;SDS011;4336;49.310;8.646;2023-06-10T07:53:57;12.57;;;10.60;;
8596;SDS011;4336;49.310;8.646;2023-06-10T07:56:23;10.82;;;9.93;;
8596;SDS011;4336;49.310;8.646;2023-06-10T07:58:50;12.10;;;11.10;;
8596;SDS011;4336;49.310;8.646;2023-06-10T08:01:16;11.60;;;10.50;;
8596;SDS011;4336;49.310;8.646;2023-06-10T08:03:42;11.80;;;10.32;;
8596;SDS011;4336;49.310;8.646;2023-06-10T08:06:07;11.45;;;9.60;;
8596;SDS011;4336;49.310;8.646;2023-06-10T08:08:33;11.43;;;10.32;;
8596;SDS011;4336;49.310;8.646;2023-06-10T08:11:00;11.90;;;10.65;;
8596;SDS011;4336;49.310;8.646;2023-06-10T08:13:25;11.73;;;10.70;;
8596;SDS011;4336;49.310;8.646;2023-06-10T08:15:51;11.38;;;10.25;;
8596;SDS011;4336;49.310;8.646;2023-06-10T08:18:18;12.35;;;11.15;;
8596;SDS011;4336;49.310;8.646;2023-06-10T08:20:44;10.98;;;9.98;;
8596;SDS011;4336;49.310;8.646;2023-06-10T08:23:10;12.15;;;11.05;;
8596;SDS011;4336;49.310;8.646;2023-06-10T08:25:35;11.60;;;10.60;;
8596;SDS011;4336;49.310;8.646;2023-06-10T08:28:01;10.30;;;9.30;;
8596;SDS011;4336;49.310;8.646;2023-06-10T08:30:27;13.98;;;11.15;;
8596;SDS011;4336;49.310;8.646;2023-06-10T08:32:53;12.18;;;10.95;;
8596;SDS011;4336;49.310;8.646;2023-06-10T08:35:18;12.20;;;11.00;;
8596;SDS011;4336;49.310;8.646;2023-06-10T08:37:44;11.52;;;10.43;;
8596;SDS011;4336;49.310;8.646;2023-06-10T08:40:10;12.15;;;10.95;;
8596;SDS011;4336;49.310;8.646;2023-06-10T08:42:39;11.60;;;10.50;;
8596;SDS011;4336;49.310;8.646;2023-06-10T08:45:11;11.98;;;10.88;;
8596;SDS011;4336;49.310;8.646;2023-06-10T08:47:43;12.10;;;10.90;;
8596;SDS011;4336;49.310;8.646;2023-06-10T08:50:10;13.32;;;11.32;;
8596;SDS011;4336;49.310;8.646;2023-06-10T08:52:36;12.65;;;11.35;;
8596;SDS011;4336;49.310;8.646;2023-06-10T08:55:03;9.85;;;8.90;;
8596;SDS011;4336;49.310;8.646;2023-06-10T08:57:32;12.20;;;10.70;;
8596;SDS011;4336;49.310;8.646;2023-06-10T08:59:58;12.25;;;11.05;;
8596;SDS011;4336;49.310;8.646;2023-06-10T09:02:24;11.77;;;10.77;;
8596;SDS011;4336;49.310;8.646;2023-06-10T09:04:50;12.25;;;10.85;;
8596;SDS011;4336;49.310;8.646;2023-06-10T09:07:17;10.05;;;9.15;;
8596;SDS011;4336;49.310;8.646;2023-06-10T09:09:43;9.60;;;8.75;;
8596;SDS011;4336;49.310;8.646;2023-06-10T09:12:10;10.77;;;9.68;;
8596;SDS011;4336;49.310;8.646;2023-06-10T09:14:36;11.52;;;10.57;;
8596;SDS011;4336;49.310;8.646;2023-06-10T09:17:03;15.52;;;11.15;;
8596;SDS011;4336;49.310;8.646;2023-06-10T09:19:29;11.77;;;10.68;;
8596;SDS011;4336;49.310;8.646;2023-06-10T09:21:55;13.90;;;10.35;;
8596;SDS011;4336;49.310;8.646;2023-06-10T09:24:22;12.35;;;11.15;;
8596;SDS011;4336;49.310;8.646;2023-06-10T09:26:48;9.68;;;8.85;;
8596;SDS011;4336;49.310;8.646;2023-06-10T09:29:16;11.57;;;10.02;;
8596;SDS011;4336;49.310;8.646;2023-06-10T09:31:42;12.18;;;10.98;;
8596;SDS011;4336;49.310;8.646;2023-06-10T09:34:10;13.50;;;9.98;;
8596;SDS011;4336;49.310;8.646;2023-06-10T09:36:38;11.05;;;10.10;;
8596;SDS011;4336;49.310;8.646;2023-06-10T09:39:05;11.52;;;10.38;;
8596;SDS011;4336;49.310;8.646;2023-06-10T09:41:39;13.07;;;10.15;;
8596;SDS011;4336;49.310;8.646;2023-06-10T09:44:12;11.75;;;10.65;;
8596;SDS011;4336;49.310;8.646;2023-06-10T09:46:39;10.95;;;9.85;;
8596;SDS011;4336;49.310;8.646;2023-06-10T09:49:05;9.70;;;8.88;;
8596;SDS011;4336;49.310;8.646;2023-06-10T09:51:31;9.95;;;8.07;;
8596;SDS011;4336;49.310;8.646;2023-06-10T09:53:57;11.13;;;10.02;;
8596;SDS011;4336;49.310;8.646;2023-06-10T09:56:34;12.60;;;10.60;;
8596;SDS011;4336;49.310;8.646;2023-06-10T09:59:00;12.50;;;10.85;;
8596;SDS011;4336;49.310;8.646;2023-06-10T10:01:26;11.05;;;10.00;;
8596;SDS011;4336;49.310;8.646;2023-06-10T10:03:52;10.77;;;9.88;;
8596;SDS011;4336;49.310;8.646;2023-06-10T10:06:19;11.90;;;10.65;;
8596;SDS011;4336;49.310;8.646;2023-06-10T10:08:46;12.15;;;11.00;;
8596;SDS011;4336;49.310;8.646;2023-06-10T10:11:14;11.25;;;10.18;;
8596;SDS011;4336;49.310;8.646;2023-06-10T10:13:42;12.13;;;10.50;;
8596;SDS011;4336;49.310;8.646;2023-06-10T10:16:21;11.35;;;10.35;;
8596;SDS011;4336;49.310;8.646;2023-06-10T10:18:57;12.45;;;10.95;;
8596;SDS011;4336;49.310;8.646;2023-06-10T10:21:27;11.00;;;9.88;;
8596;SDS011;4336;49.310;8.646;2023-06-10T10:24:12;11.13;;;10.13;;
8596;SDS011;4336;49.310;8.646;2023-06-10T10:26:46;11.30;;;10.30;;
8596;SDS011;4336;49.310;8.646;2023-06-10T10:29:14;11.65;;;10.52;;
8596;SDS011;4336;49.310;8.646;2023-06-10T10:31:46;13.23;;;10.25;;
8596;SDS011;4336;49.310;8.646;2023-06-10T10:34:13;10.65;;;9.65;;
8596;SDS011;4336;49.310;8.646;2023-06-10T10:36:42;10.93;;;9.02;;
8596;SDS011;4336;49.310;8.646;2023-06-10T10:39:08;12.35;;;10.18;;
8596;SDS011;4336;49.310;8.646;2023-06-10T10:41:34;10.85;;;9.85;;
8596;SDS011;4336;49.310;8.646;2023-06-10T10:44:02;10.73;;;9.70;;
8596;SDS011;4336;49.310;8.646;2023-06-10T10:46:30;11.73;;;9.73;;
8596;SDS011;4336;49.310;8.646;2023-06-10T10:48:56;11.68;;;10.57;;
8596;SDS011;4336;49.310;8.646;2023-06-10T10:51:23;11.27;;;10.25;;
8596;SDS011;4336;49.310;8.646;2023-06-10T10:54:13;14.45;;;10.98;;
8596;SDS011;4336;49.310;8.646;2023-06-10T10:56:39;11.45;;;10.30;;
8596;SDS011;4336;49.310;8.646;2023-06-10T10:59:20;11.43;;;10.25;;
8596;SDS011;4336;49.310;8.646;2023-06-10T11:01:46;12.13;;;10.40;;
8596;SDS011;4336;49.310;8.646;2023-06-10T11:04:12;11.27;;;10.18;;
8596;SDS011;4336;49.310;8.646;2023-06-10T11:06:38;11.30;;;10.40;;
8596;SDS011;4336;49.310;8.646;2023-06-10T11:11:53;11.07;;;10.10;;
8596;SDS011;4336;49.310;8.646;2023-06-10T11:14:28;11.13;;;9.88;;
8596;SDS011;4336;49.310;8.646;2023-06-10T11:16:56;10.38;;;8.73;;
8596;SDS011;4336;49.310;8.646;2023-06-10T11:19:43;11.07;;;9.98;;
8596;SDS011;4336;49.310;8.646;2023-06-10T11:22:15;11.02;;;8.20;;
8596;SDS011;4336;49.310;8.646;2023-06-10T11:24:47;9.55;;;8.65;;
8596;SDS011;4336;49.310;8.646;2023-06-10T11:27:23;11.50;;;10.32;;
8596;SDS011;4336;49.310;8.646;2023-06-10T11:29:55;11.38;;;8.25;;
8596;SDS011;4336;49.310;8.646;2023-06-10T11:32:31;10.95;;;9.93;;
8596;SDS011;4336;49.310;8.646;2023-06-10T11:34:58;10.25;;;9.35;;
8596;SDS011;4336;49.310;8.646;2023-06-10T11:37:24;10.52;;;9.63;;
8596;SDS011;4336;49.310;8.646;2023-06-10T11:39:56;11.48;;;9.80;;
8596;SDS011;4336;49.310;8.646;2023-06-10T11:42:22;11.70;;;9.93;;
8596;SDS011;4336;49.310;8.646;2023-06-10T11:44:48;11.75;;;10.38;;
8596;SDS011;4336;49.310;8.646;2023-06-10T11:47:15;11.02;;;9.82;;
8596;SDS011;4336;49.310;8.646;2023-06-10T11:49:41;11.10;;;10.20;;
8596;SDS011;4336;49.310;8.646;2023-06-10T11:52:06;10.02;;;9.02;;
8596;SDS011;4336;49.310;8.646;2023-06-10T11:54:32;10.00;;;9.05;;
8596;SDS011;4336;49.310;8.646;2023-06-10T11:56:58;10.68;;;9.70;;
8596;SDS011;4336;49.310;8.646;2023-06-10T11:59:33;9.70;;;8.90;;
8596;SDS011;4336;49.310;8.646;2023-06-10T12:01:59;10.25;;;9.30;;
8596;SDS011;4336;49.310;8.646;2023-06-10T12:04:24;10.90;;;10.00;;
8596;SDS011;4336;49.310;8.646;2023-06-10T12:06:51;11.30;;;10.20;;
8596;SDS011;4336;49.310;8.646;2023-06-10T12:11:52;9.93;;;9.13;;
8596;SDS011;4336;49.310;8.646;2023-06-10T12:17:42;9.95;;;9.05;;
8596;SDS011;4336;49.310;8.646;2023-06-10T12:20:08;10.63;;;9.43;;
8596;SDS011;4336;49.310;8.646;2023-06-10T12:22:50;10.43;;;9.43;;
8596;SDS011;4336;49.310;8.646;2023-06-10T12:25:15;10.20;;;9.20;;
8596;SDS011;4336;49.310;8.646;2023-06-10T12:27:50;10.38;;;9.40;;
8596;SDS011;4336;49.310;8.646;2023-06-10T12:30:20;9.90;;;8.93;;
8596;SDS011;4336;49.310;8.646;2023-06-10T12:32:51;10.40;;;9.50;;
8596;SDS011;4336;49.310;8.646;2023-06-10T12:35:21;9.82;;;9.02;;
8596;SDS011;4336;49.310;8.646;2023-06-10T12:38:03;9.68;;;8.75;;
8596;SDS011;4336;49.310;8.646;2023-06-10T12:40:33;12.40;;;9.50;;
8596;SDS011;4336;49.310;8.646;2023-06-10T12:43:01;9.95;;;9.15;;
8596;SDS011;4336;49.310;8.646;2023-06-10T12:45:28;10.70;;;9.60;;
8596;SDS011;4336;49.310;8.646;2023-06-10T12:48:08;10.18;;;9.18;;
8596;SDS011;4336;49.310;8.646;2023-06-10T12:50:35;10.50;;;9.45;;
8596;SDS011;4336;49.310;8.646;2023-06-10T12:53:04;10.55;;;9.65;;
8596;SDS011;4336;49.310;8.646;2023-06-10T12:55:31;10.40;;;9.48;;
8596;SDS011;4336;49.310;8.646;2023-06-10T12:57:57;10.40;;;9.50;;
8596;SDS011;4336;49.310;8.646;2023-06-10T13:00:23;10.63;;;9.55;;
8596;SDS011;4336;49.310;8.646;2023-06-10T13:02:55;9.88;;;7.53;;
8596;SDS011;4336;49.310;8.646;2023-06-10T13:05:21;10.55;;;9.65;;
8596;SDS011;4336;49.310;8.646;2023-06-10T13:07:47;10.55;;;9.50;;
8596;SDS011;4336;49.310;8.646;2023-06-10T13:10:14;10.43;;;9.40;;
8596;SDS011;4336;49.310;8.646;2023-06-10T13:12:41;13.93;;;9.25;;
8596;SDS011;4336;49.310;8.646;2023-06-10T13:15:08;11.88;;;9.13;;
8596;SDS011;4336;49.310;8.646;2023-06-10T13:17:34;10.70;;;9.80;;
8596;SDS011;4336;49.310;8.646;2023-06-10T13:20:04;12.05;;;9.57;;
8596;SDS011;4336;49.310;8.646;2023-06-10T13:22:31;10.77;;;9.88;;
8596;SDS011;4336;49.310;8.646;2023-06-10T13:25:01;8.85;;;7.47;;
8596;SDS011;4336;49.310;8.646;2023-06-10T13:27:28;10.23;;;9.32;;
8596;SDS011;4336;49.310;8.646;2023-06-10T13:29:54;10.10;;;9.27;;
8596;SDS011;4336;49.310;8.646;2023-06-10T13:32:20;9.95;;;9.05;;
8596;SDS011;4336;49.310;8.646;2023-06-10T13:34:46;10.75;;;9.75;;
8596;SDS011;4336;49.310;8.646;2023-06-10T13:37:12;10.60;;;8.15;;
8596;SDS011;4336;49.310;8.646;2023-06-10T13:39:38;9.85;;;8.85;;
8596;SDS011;4336;49.310;8.646;2023-06-10T13:42:04;9.73;;;8.93;;
8596;SDS011;4336;49.310;8.646;2023-06-10T13:44:33;7.95;;;7.30;;
8596;SDS011;4336;49.310;8.646;2023-06-10T13:47:02;10.38;;;9.38;;
8596;SDS011;4336;49.310;8.646;2023-06-10T13:49:28;10.50;;;9.63;;
8596;SDS011;4336;49.310;8.646;2023-06-10T13:51:54;10.43;;;9.43;;
8596;SDS011;4336;49.310;8.646;2023-06-10T13:54:20;11.45;;;10.25;;
8596;SDS011;4336;49.310;8.646;2023-06-10T13:56:46;11.50;;;10.40;;
8596;SDS011;4336;49.310;8.646;2023-06-10T13:59:12;9.90;;;8.93;;
8596;SDS011;4336;49.310;8.646;2023-06-10T14:01:38;11.80;;;10.70;;
8596;SDS011;4336;49.310;8.646;2023-06-10T14:04:05;10.93;;;9.93;;
8596;SDS011;4336;49.310;8.646;2023-06-10T14:06:32;8.73;;;7.97;;
8596;SDS011;4336;49.310;8.646;2023-06-10T14:08:59;11.50;;;10.45;;
8596;SDS011;4336;49.310;8.646;2023-06-10T14:11:25;11.48;;;10.48;;
8596;SDS011;4336;49.310;8.646;2023-06-10T14:13:50;10.55;;;9.63;;
8596;SDS011;4336;49.310;8.646;2023-06-10T14:16:16;10.15;;;9.35;;
8596;SDS011;4336;49.310;8.646;2023-06-10T14:18:42;10.05;;;9.13;;
8596;SDS011;4336;49.310;8.646;2023-06-10T14:21:08;10.43;;;9.50;;
8596;SDS011;4336;49.310;8.646;2023-06-10T14:23:34;11.50;;;10.50;;
8596;SDS011;4336;49.310;8.646;2023-06-10T14:26:00;11.60;;;10.60;;
8596;SDS011;4336;49.310;8.646;2023-06-10T14:28:28;10.40;;;9.40;;
8596;SDS011;4336;49.310;8.646;2023-06-10T14:30:54;11.43;;;10.43;;
8596;SDS011;4336;49.310;8.646;2023-06-10T14:33:20;10.82;;;9.88;;
8596;SDS011;4336;49.310;8.646;2023-06-10T14:35:45;10.38;;;9.43;;
8596;SDS011;4336;49.310;8.646;2023-06-10T14:38:11;10.57;;;9.57;;
8596;SDS011;4336;49.310;8.646;2023-06-10T14:40:37;10.93;;;9.77;;
8596;SDS011;4336;49.310;8.646;2023-06-10T14:43:03;12.80;;;11.38;;
8596;SDS011;4336;49.310;8.646;2023-06-10T14:45:35;11.60;;;10.23;;
8596;SDS011;4336;49.310;8.646;2023-06-10T14:48:02;11.65;;;10.65;;
8596;SDS011;4336;49.310;8.646;2023-06-10T14:50:28;10.27;;;9.35;;
8596;SDS011;4336;49.310;8.646;2023-06-10T14:52:54;13.57;;;11.52;;
8596;SDS011;4336;49.310;8.646;2023-06-10T14:55:19;11.02;;;9.90;;
8596;SDS011;4336;49.310;8.646;2023-06-10T14:57:45;10.52;;;9.57;;
8596;SDS011;4336;49.310;8.646;2023-06-10T15:00:11;11.73;;;10.80;;
8596;SDS011;4336;49.310;8.646;2023-06-10T15:02:40;11.35;;;10.15;;
8596;SDS011;4336;49.310;8.646;2023-06-10T15:05:06;11.35;;;10.45;;
8596;SDS011;4336;49.310;8.646;2023-06-10T15:07:32;13.20;;;11.80;;
8596;SDS011;4336;49.310;8.646;2023-06-10T15:09:57;11.20;;;10.25;;
8596;SDS011;4336;49.310;8.646;2023-06-10T15:12:23;10.90;;;10.00;;